Time;durP1;ratioP1;P1;durP2;ratioP2;P2;SDS_P1;SDS_P2;PMS_P1;PMS_P2;Temp;Humidity;BMP_temperature;BMP_pressure;BME280_temperature;BME280_humidity;BME280_pressure;Samples;Min_cycle;Max_cycle;Signal;HPM_P1;HPM_P2
2022/07/12 00:01:03;;;;;;;5.72;4.00;;;;;;;16.62;100.00;102383.13;5014015;28;20098;-50
2022/07/12 00:03:29;;;;;;;6.03;4.43;;;;;;;16.55;100.00;102369.44;5014209;28;20057;-51
2022/07/12 00:05:54;;;;;;;8.35;4.28;;;;;;;16.51;100.00;102373.47;5011726;28;20047;-48
2022/07/12 00:08:20;;;;;;;9.55;4.38;;;;;;;16.48;100.00;102371.06;4991838;28;20033;-52
2022/07/12 00:10:45;;;;;;;13.43;4.60;;;;;;;16.41;100.00;102363.66;5003863;28;20048;-49
2022/07/12 00:13:10;;;;;;;9.40;4.55;;;;;;;16.36;100.00;102363.31;5013190;28;20021;-49
2022/07/12 00:15:36;;;;;;;10.60;4.75;;;;;;;16.37;100.00;102364.97;5011167;28;20465;-48
2022/07/12 00:18:02;;;;;;;7.38;4.47;;;;;;;16.38;100.00;102363.97;5009388;28;20271;-48
2022/07/12 00:20:28;;;;;;;10.00;4.72;;;;;;;16.42;100.00;102368.03;4996284;28;20045;-49
2022/07/12 00:22:54;;;;;;;7.72;4.20;;;;;;;16.37;100.00;102353.34;4996023;28;20523;-49
2022/07/12 00:25:19;;;;;;;7.20;4.32;;;;;;;16.39;100.00;102368.38;4994275;28;20018;-48
2022/07/12 00:27:45;;;;;;;7.72;4.47;;;;;;;16.38;100.00;102357.75;4996553;28;20050;-48
2022/07/12 00:30:10;;;;;;;5.97;4.18;;;;;;;16.34;100.00;102362.59;4993955;28;20437;-48
2022/07/12 00:32:36;;;;;;;6.72;4.20;;;;;;;16.29;100.00;102343.38;4996289;28;20026;-49
2022/07/12 00:35:02;;;;;;;7.95;4.43;;;;;;;16.34;100.00;102353.66;4978086;28;20068;-51
2022/07/12 00:37:27;;;;;;;7.97;4.07;;;;;;;16.38;100.00;102355.88;4995486;28;20037;-50
2022/07/12 00:39:53;;;;;;;5.47;3.90;;;;;;;16.35;100.00;102353.50;4995677;28;20037;-51
2022/07/12 00:42:18;;;;;;;6.20;3.97;;;;;;;16.31;100.00;102340.50;4994479;28;20076;-50
2022/07/12 00:44:43;;;;;;;7.43;4.28;;;;;;;16.27;100.00;102349.94;4977185;28;20028;-47
2022/07/12 00:47:21;;;;;;;5.28;3.63;;;;;;;16.29;100.00;102364.09;4995299;28;20037;-47
2022/07/12 00:49:47;;;;;;;7.00;4.35;;;;;;;16.24;100.00;102356.47;4996400;28;20045;-49
2022/07/12 00:52:12;;;;;;;10.73;4.40;;;;;;;16.21;100.00;102354.97;4977739;28;20052;-49
2022/07/12 00:54:37;;;;;;;8.68;4.20;;;;;;;16.19;100.00;102354.28;4994882;28;20036;-48
2022/07/12 00:57:03;;;;;;;5.80;4.20;;;;;;;16.19;100.00;102350.72;4995246;28;20109;-51
2022/07/12 00:59:28;;;;;;;5.40;4.07;;;;;;;16.18;100.00;102355.28;4994700;28;20319;-49
2022/07/12 01:01:53;;;;;;;4.55;3.80;;;;;;;16.11;100.00;102356.13;4977858;28;20026;-51
2022/07/12 01:04:19;;;;;;;5.47;3.90;;;;;;;16.13;100.00;102360.31;4995209;28;20022;-49
2022/07/12 01:06:45;;;;;;;4.18;3.75;;;;;;;16.11;100.00;102367.72;5015651;28;20555;-49
2022/07/12 01:09:10;;;;;;;5.55;3.67;;;;;;;16.10;100.00;102362.50;5002566;28;20057;-50
2022/07/12 01:11:36;;;;;;;5.65;3.95;;;;;;;16.02;100.00;102358.75;5013958;28;20045;-49
2022/07/12 01:14:01;;;;;;;4.78;3.60;;;;;;;15.98;100.00;102356.53;5014256;28;20037;-51
2022/07/12 01:16:27;;;;;;;5.70;3.70;;;;;;;15.93;100.00;102358.88;4977069;28;20088;-50
2022/07/12 01:18:53;;;;;;;6.97;4.00;;;;;;;15.77;100.00;102367.69;5007156;28;20528;-49
2022/07/12 01:21:21;;;;;;;5.55;4.10;;;;;;;15.65;100.00;102373.31;4997439;28;20102;-50
2022/07/12 01:23:47;;;;;;;5.57;3.70;;;;;;;15.59;100.00;102371.22;5014781;28;20341;-51
2022/07/12 01:26:12;;;;;;;5.75;3.72;;;;;;;15.57;100.00;102372.41;5014526;28;20032;-48
2022/07/12 01:28:38;;;;;;;6.38;3.65;;;;;;;15.57;100.00;102373.22;5013230;28;20524;-51
2022/07/12 01:31:04;;;;;;;4.55;3.80;;;;;;;15.57;100.00;102377.78;4987220;28;20053;-49
2022/07/12 01:33:30;;;;;;;7.82;3.95;;;;;;;15.56;100.00;102381.47;5011725;28;20391;-47
2022/07/12 01:35:57;;;;;;;4.22;3.58;;;;;;;15.54;100.00;102381.63;5014608;28;20055;-49
2022/07/12 01:38:22;;;;;;;5.97;3.65;;;;;;;15.52;100.00;102382.78;5013941;28;20021;-49
2022/07/12 01:40:48;;;;;;;5.53;3.55;;;;;;;15.52;100.00;102383.63;5009744;28;20479;-51
2022/07/12 01:43:14;;;;;;;4.32;3.60;;;;;;;15.51;100.00;102381.09;5014068;28;20408;-50
2022/07/12 01:45:39;;;;;;;9.50;3.80;;;;;;;15.48;100.00;102377.72;5013635;28;20083;-48
2022/07/12 01:48:05;;;;;;;6.18;3.65;;;;;;;15.50;100.00;102376.72;5013293;28;20025;-50
2022/07/12 01:50:30;;;;;;;5.28;3.63;;;;;;;15.52;100.00;102386.31;5011857;28;21481;-47
2022/07/12 01:52:56;;;;;;;5.15;3.83;;;;;;;15.52;100.00;102383.63;5003397;28;20040;-50
2022/07/12 01:55:21;;;;;;;6.07;3.78;;;;;;;15.50;100.00;102384.81;5013775;28;20174;-50
2022/07/12 01:57:46;;;;;;;4.15;3.75;;;;;;;15.51;100.00;102373.00;5015449;28;20021;-47
2022/07/12 02:00:14;;;;;;;6.50;4.25;;;;;;;15.50;100.00;102382.13;5013370;28;20115;-48
2022/07/12 02:02:40;;;;;;;5.38;3.60;;;;;;;15.50;100.00;102379.41;5013748;28;20531;-48
2022/07/12 02:05:05;;;;;;;4.55;4.15;;;;;;;15.47;100.00;102362.56;5013871;28;20014;-49
2022/07/12 02:07:32;;;;;;;6.30;4.50;;;;;;;15.46;100.00;102368.09;5015365;28;20173;-47
2022/07/12 02:09:57;;;;;;;6.22;4.40;;;;;;;15.44;100.00;102370.97;5013262;28;20348;-47
2022/07/12 02:12:23;;;;;;;4.90;4.40;;;;;;;15.43;100.00;102373.81;5014419;28;20148;-46
2022/07/12 02:14:49;;;;;;;8.63;4.53;;;;;;;15.44;100.00;102376.34;5012932;28;20107;-48
2022/07/12 02:17:14;;;;;;;6.47;4.95;;;;;;;15.37;100.00;102360.97;5013953;28;20013;-51
2022/07/12 02:19:40;;;;;;;7.50;4.95;;;;;;;15.34;100.00;102355.88;5013525;28;20220;-50
2022/07/12 02:22:05;;;;;;;6.90;4.82;;;;;;;15.30;100.00;102364.25;5015148;28;20475;-49
2022/07/12 02:24:30;;;;;;;8.63;5.00;;;;;;;15.30;100.00;102364.25;5018053;28;20029;-49
2022/07/12 02:26:56;;;;;;;7.97;5.22;;;;;;;15.28;100.00;102366.28;5017529;28;20337;-51
2022/07/12 02:29:21;;;;;;;9.82;4.95;;;;;;;15.28;100.00;102358.19;5010854;28;20091;-48
2022/07/12 02:31:46;;;;;;;5.88;5.00;;;;;;;15.26;100.00;102367.44;5014223;28;20073;-50
2022/07/12 02:34:11;;;;;;;5.65;5.15;;;;;;;15.21;100.00;102354.44;5008704;28;20094;-46
2022/07/12 02:36:37;;;;;;;7.20;5.57;;;;;;;15.23;100.00;102359.66;5017339;28;20204;-51
2022/07/12 02:39:04;;;;;;;6.28;5.15;;;;;;;15.21;100.00;102361.69;5017453;28;20021;-48
2022/07/12 02:41:30;;;;;;;7.45;5.20;;;;;;;15.19;100.00;102364.53;5013483;28;20535;-48
2022/07/12 02:43:56;;;;;;;8.77;5.85;;;;;;;15.16;100.00;102364.00;5016527;28;20512;-48
2022/07/12 02:46:21;;;;;;;8.95;5.22;;;;;;;15.14;100.00;102365.97;5016873;28;20096;-47
2022/07/12 02:48:46;;;;;;;10.45;5.38;;;;;;;15.14;100.00;102363.28;5018019;28;20112;-50
2022/07/12 02:51:12;;;;;;;6.55;5.75;;;;;;;15.11;100.00;102364.44;5017856;28;20021;-49
2022/07/12 02:53:38;;;;;;;6.63;5.68;;;;;;;15.05;100.00;102362.34;5016479;28;20245;-47
2022/07/12 02:56:04;;;;;;;5.85;5.00;;;;;;;15.10;100.00;102368.13;5016761;28;20021;-47
2022/07/12 02:58:29;;;;;;;6.25;5.22;;;;;;;15.06;100.00;102355.97;5016702;28;20029;-48
2022/07/12 03:00:54;;;;;;;7.35;5.68;;;;;;;15.04;100.00;102358.00;5017776;28;20037;-48
2022/07/12 03:03:20;;;;;;;9.68;5.15;;;;;;;15.04;100.00;102364.19;5016908;28;20107;-47
2022/07/12 03:05:45;;;;;;;5.75;5.15;;;;;;;15.03;100.00;102359.81;5017459;28;20013;-48
2022/07/12 03:08:11;;;;;;;8.88;5.18;;;;;;;15.04;100.00;102361.50;5007756;28;20074;-47
2022/07/12 03:10:38;;;;;;;12.80;5.63;;;;;;;15.03;100.00;102364.34;5016666;28;20455;-48
2022/07/12 03:13:04;;;;;;;10.02;5.68;;;;;;;14.95;100.00;102359.72;5015580;28;20578;-50
2022/07/12 03:15:30;;;;;;;6.57;5.60;;;;;;;14.93;100.00;102361.72;5017613;28;20484;-49
2022/07/12 03:17:57;;;;;;;5.55;4.97;;;;;;;14.88;100.00;102372.09;4998776;28;20083;-52
2022/07/12 03:20:23;;;;;;;10.45;5.45;;;;;;;14.84;100.00;102363.50;5012282;28;20063;-46
2022/07/12 03:22:51;;;;;;;7.00;5.32;;;;;;;14.82;100.00;102362.81;5017139;28;20029;-50
2022/07/12 03:25:17;;;;;;;6.75;5.38;;;;;;;14.74;100.00;102365.41;5016164;28;20029;-48
2022/07/12 03:27:42;;;;;;;11.98;5.72;;;;;;;14.70;100.00;102355.97;5016274;28;20349;-48
2022/07/12 03:30:09;;;;;;;13.18;5.93;;;;;;;14.65;100.00;102358.25;5015023;28;20029;-48
2022/07/12 03:32:35;;;;;;;11.63;5.80;;;;;;;14.61;100.00;102355.00;5016676;28;20037;-51
2022/07/12 03:35:00;;;;;;;7.82;5.53;;;;;;;14.57;100.00;102358.13;4998262;28;20026;-51
2022/07/12 03:37:26;;;;;;;10.07;5.65;;;;;;;14.57;100.00;102360.81;5016459;28;20075;-49
2022/07/12 03:39:53;;;;;;;11.63;6.18;;;;;;;14.53;100.00;102357.59;5011910;28;20101;-48
2022/07/12 03:42:18;;;;;;;13.73;6.22;;;;;;;14.54;100.00;102370.88;5012006;28;20018;-50
2022/07/12 03:44:44;;;;;;;8.32;5.40;;;;;;;14.51;100.00;102371.16;5014739;28;20040;-48
2022/07/12 03:47:09;;;;;;;5.63;4.95;;;;;;;14.53;100.00;102371.03;5016115;28;20052;-49
2022/07/12 03:49:34;;;;;;;7.50;5.07;;;;;;;14.51;100.00;102360.41;5016037;28;20021;-47
2022/07/12 03:52:00;;;;;;;5.90;4.70;;;;;;;14.55;100.00;102363.66;5016950;28;20068;-47
2022/07/12 03:54:25;;;;;;;6.45;5.07;;;;;;;14.57;100.00;102364.34;5015697;28;20028;-47
2022/07/12 03:59:34;;;;;;;6.88;5.05;;;;;;;14.61;100.00;102357.69;5015195;28;20098;-47
2022/07/12 04:02:01;;;;;;;6.75;5.50;;;;;;;14.61;100.00;102352.31;5016052;28;20455;-47
2022/07/12 04:04:26;;;;;;;9.13;5.35;;;;;;;14.63;100.00;102353.03;5015895;28;20029;-48
2022/07/12 04:06:52;;;;;;;7.75;5.93;;;;;;;14.64;100.00;102353.84;5005829;28;20029;-48
2022/07/12 04:09:17;;;;;;;7.60;5.50;;;;;;;14.65;100.00;102355.56;5002621;28;20111;-47
2022/07/12 04:11:42;;;;;;;7.95;5.95;;;;;;;14.70;100.00;102353.28;5014186;28;20083;-47
2022/07/12 04:14:08;;;;;;;7.85;6.15;;;;;;;14.77;100.00;102356.19;4985567;28;20028;-47
2022/07/12 04:16:33;;;;;;;10.20;6.47;;;;;;;14.77;100.00;102357.03;5009135;28;20044;-47
2022/07/12 04:18:58;;;;;;;6.55;5.85;;;;;;;14.83;100.00;102367.16;5015551;28;20053;-51
2022/07/12 04:21:24;;;;;;;9.68;6.38;;;;;;;14.86;100.00;102371.41;5014003;28;20177;-48
2022/07/12 04:23:49;;;;;;;6.97;6.03;;;;;;;14.84;100.00;102370.72;4995634;28;20021;-48
2022/07/12 04:26:15;;;;;;;10.48;5.57;;;;;;;14.73;100.00;102379.84;5005499;28;20135;-50
2022/07/12 04:28:40;;;;;;;8.43;5.90;;;;;;;14.71;100.00;102379.16;4995711;28;20106;-48
2022/07/12 04:31:06;;;;;;;8.05;6.07;;;;;;;14.74;100.00;102382.38;5003687;28;20453;-51
2022/07/12 04:33:33;;;;;;;6.85;6.03;;;;;;;14.79;100.00;102389.16;5010736;28;20022;-47
2022/07/12 04:35:58;;;;;;;8.30;5.70;;;;;;;14.83;100.00;102393.22;5003361;28;20033;-50
2022/07/12 04:38:23;;;;;;;10.07;5.97;;;;;;;14.84;100.00;102389.56;4995565;28;20029;-51
2022/07/12 04:40:48;;;;;;;11.00;6.03;;;;;;;14.87;100.00;102392.78;5005224;28;20112;-50
2022/07/12 04:43:14;;;;;;;6.85;5.75;;;;;;;14.91;100.00;102387.94;5002505;28;20029;-47
2022/07/12 04:45:39;;;;;;;9.27;7.18;;;;;;;14.94;100.00;102376.88;4996989;28;20109;-49
2022/07/12 04:48:04;;;;;;;9.98;6.72;;;;;;;15.00;100.00;102384.31;5014469;28;20316;-50
2022/07/12 04:50:30;;;;;;;9.95;6.65;;;;;;;15.07;100.00;102389.94;5013240;28;20453;-48
2022/07/12 04:52:55;;;;;;;11.40;6.75;;;;;;;15.11;100.00;102378.72;5009102;28;20037;-46
2022/07/12 04:55:20;;;;;;;7.85;7.05;;;;;;;15.10;100.00;102369.00;5010054;28;20431;-50
2022/07/12 04:57:46;;;;;;;9.50;7.30;;;;;;;15.22;100.00;102380.38;5010518;28;20554;-51
2022/07/12 05:00:11;;;;;;;8.73;7.35;;;;;;;15.28;100.00;102378.88;5011997;28;20452;-50
2022/07/12 05:02:37;;;;;;;10.63;7.63;;;;;;;15.36;100.00;102381.66;5012226;28;20029;-49
2022/07/12 05:05:03;;;;;;;8.82;7.35;;;;;;;15.42;100.00;102393.66;5013725;28;20045;-50
2022/07/12 05:07:28;;;;;;;9.23;7.47;;;;;;;15.48;100.00;102383.09;4993650;28;20396;-47
2022/07/12 05:09:53;;;;;;;9.23;7.65;;;;;;;15.56;100.00;102393.06;5008232;28;20196;-48
2022/07/12 05:12:19;;;;;;;10.68;7.85;;;;;;;15.61;100.00;102393.47;5011493;28;20390;-48
2022/07/12 05:14:44;;;;;;;13.90;8.13;;;;;;;15.66;100.00;102398.38;4986229;28;20577;-48
2022/07/12 05:17:10;;;;;;;16.17;7.85;;;;;;;15.76;100.00;102399.16;4994377;28;20036;-49
2022/07/12 05:19:37;;;;;;;14.93;8.02;;;;;;;15.84;100.00;102412.69;4994363;28;20031;-48
2022/07/12 05:22:02;;;;;;;11.32;8.93;;;;;;;15.94;100.00;102409.91;4995267;28;20022;-49
2022/07/12 05:24:28;;;;;;;11.48;8.80;;;;;;;16.00;100.00;102409.28;4994145;28;20037;-46
2022/07/12 05:26:54;;;;;;;9.77;8.52;;;;;;;16.07;100.00;102409.47;4993891;28;20531;-51
2022/07/12 05:29:19;;;;;;;14.40;9.00;;;;;;;16.15;100.00;102411.38;4998336;28;20109;-49
2022/07/12 05:31:44;;;;;;;12.52;9.60;;;;;;;16.26;100.00;102412.94;5009691;28;20543;-49
2022/07/12 05:34:10;;;;;;;15.18;10.13;;;;;;;16.32;100.00;102415.84;5012994;28;20075;-47
2022/07/12 05:36:35;;;;;;;10.85;9.75;;;;;;;16.45;100.00;102426.19;4994051;28;20041;-48
2022/07/12 05:39:00;;;;;;;12.23;10.15;;;;;;;16.50;100.00;102421.16;4988981;28;20023;-48
2022/07/12 05:41:26;;;;;;;13.90;11.00;;;;;;;16.62;100.00;102428.97;4991033;28;20026;-46
2022/07/12 05:43:51;;;;;;;13.95;11.10;;;;;;;16.72;100.00;102432.41;5006105;28;20187;-48
2022/07/12 05:46:16;;;;;;;12.45;11.15;;;;;;;16.85;100.00;102442.75;5014590;28;20018;-44
2022/07/12 05:48:42;;;;;;;12.57;10.75;;;;;;;16.97;100.00;102441.41;5014711;28;20029;-49
2022/07/12 05:53:51;;;;;;;12.38;11.13;;;;;;;17.20;100.00;102448.91;5014460;28;20445;-48
2022/07/12 05:56:17;;;;;;;13.80;10.93;;;;;;;17.29;100.00;102454.19;5014229;28;20017;-46
2022/07/12 05:58:42;;;;;;;12.95;11.27;;;;;;;17.30;100.00;102460.41;5017724;28;20075;-47
2022/07/12 06:01:07;;;;;;;17.73;11.18;;;;;;;17.34;100.00;102464.47;5013494;28;20141;-49
2022/07/12 06:03:33;;;;;;;13.60;10.95;;;;;;;17.40;100.00;102463.81;4998283;28;20028;-45
2022/07/12 06:05:59;;;;;;;12.30;11.02;;;;;;;17.41;100.00;102464.63;4999197;28;20076;-50
2022/07/12 06:08:24;;;;;;;12.68;11.18;;;;;;;17.50;100.00;102460.94;4991926;28;20022;-47
2022/07/12 06:10:49;;;;;;;13.57;11.30;;;;;;;17.60;100.00;102466.16;5001443;28;20051;-47
2022/07/12 06:13:15;;;;;;;15.70;11.45;;;;;;;17.73;100.00;102462.97;4997104;28;20041;-47
2022/07/12 06:15:40;;;;;;;11.50;10.20;;;;;;;17.86;100.00;102461.47;4998589;28;20060;-47
2022/07/12 06:18:05;;;;;;;14.80;10.52;;;;;;;18.05;100.00;102467.56;4980152;28;20030;-45
2022/07/12 06:20:31;;;;;;;12.00;10.75;;;;;;;18.19;100.00;102464.13;4998580;28;20108;-50
2022/07/12 06:22:57;;;;;;;13.43;10.07;;;;;;;18.24;100.00;102466.34;4997583;28;20084;-47
2022/07/12 06:25:23;;;;;;;13.77;10.10;;;;;;;18.26;100.00;102467.84;4997718;28;20018;-44
2022/07/12 06:27:48;;;;;;;13.63;10.15;;;;;;;18.37;100.00;102463.09;4997616;28;20041;-46
2022/07/12 06:30:16;;;;;;;14.90;10.27;;;;;;;18.51;100.00;102458.81;4999195;28;20032;-45
2022/07/12 06:32:41;;;;;;;10.93;9.82;;;;;;;18.64;100.00;102459.13;5007856;28;20073;-46
2022/07/12 06:35:07;;;;;;;13.02;10.25;;;;;;;18.82;100.00;102461.56;5005843;28;20029;-49
2022/07/12 06:37:32;;;;;;;13.20;10.20;;;;;;;18.91;100.00;102455.13;5010471;28;20025;-49
2022/07/12 06:39:57;;;;;;;14.93;10.10;;;;;;;19.01;100.00;102452.22;4991090;28;20026;-48
2022/07/12 06:42:22;;;;;;;15.90;10.80;;;;;;;19.15;100.00;102464.16;4999305;28;20026;-46
2022/07/12 06:44:48;;;;;;;11.70;10.32;;;;;;;19.26;100.00;102463.72;5016502;28;20026;-44
2022/07/12 06:47:13;;;;;;;22.90;9.90;;;;;;;19.42;100.00;102456.53;4999984;28;20492;-47
2022/07/12 06:49:38;;;;;;;15.30;9.88;;;;;;;19.51;100.00;102456.25;5017292;28;20039;-44
2022/07/12 06:52:04;;;;;;;18.38;9.65;;;;;;;19.58;100.00;102453.69;5018406;28;20026;-48
2022/07/12 06:54:29;;;;;;;13.65;9.80;;;;;;;19.63;100.00;102464.81;5013982;28;20056;-47
2022/07/12 06:56:55;;;;;;;12.80;9.82;;;;;;;19.62;100.00;102460.44;5006944;28;20025;-45
2022/07/12 06:59:20;;;;;;;12.27;10.63;;;;;;;19.68;100.00;102464.28;4998147;28;20018;-47
2022/07/12 07:01:45;;;;;;;11.32;10.23;;;;;;;19.79;100.00;102458.47;4997395;28;20163;-46
2022/07/12 07:04:11;;;;;;;12.23;10.43;;;;;;;19.97;100.00;102465.41;4997381;28;20030;-49
2022/07/12 07:06:36;;;;;;;11.18;9.02;;;;;;;20.00;100.00;102463.16;4979562;28;20420;-46
2022/07/12 07:09:02;;;;;;;10.93;9.02;;;;;;;20.15;100.00;102459.66;4996697;28;20033;-47
2022/07/12 07:11:27;;;;;;;10.70;8.18;;;;;;;20.23;100.00;102459.53;4997013;28;20499;-47
2022/07/12 07:13:53;;;;;;;12.27;9.00;;;;;;;20.25;100.00;102462.94;4998619;28;20227;-45
2022/07/12 07:16:22;;;;;;;10.73;8.40;;;;;;;20.26;100.00;102462.72;4996365;28;20010;-49
2022/07/12 07:18:47;;;;;;;9.85;8.40;;;;;;;20.38;100.00;102464.97;4997944;28;20041;-49
2022/07/12 07:21:12;;;;;;;11.60;8.60;;;;;;;20.61;100.00;102459.47;4996789;28;20024;-46
2022/07/12 07:23:37;;;;;;;9.45;8.30;;;;;;;20.76;100.00;102465.75;4996657;28;20037;-48
2022/07/12 07:26:03;;;;;;;12.75;8.55;;;;;;;20.89;100.00;102465.06;4997126;28;20072;-45
2022/07/12 07:28:28;;;;;;;9.25;8.20;;;;;;;21.07;100.00;102464.66;5007378;28;20073;-45
2022/07/12 07:30:53;;;;;;;14.25;8.63;;;;;;;21.31;100.00;102457.19;4999487;28;20028;-47
2022/07/12 07:33:20;;;;;;;18.00;8.90;;;;;;;21.47;99.03;102464.25;4985908;28;20055;-52
2022/07/12 07:35:46;;;;;;;12.45;8.40;;;;;;;21.55;99.13;102462.25;5014383;28;20033;-46
2022/07/12 07:38:11;;;;;;;9.05;7.15;;;;;;;21.51;96.91;102458.25;5014415;28;20028;-46
2022/07/12 07:40:37;;;;;;;10.27;7.10;;;;;;;21.51;96.76;102454.69;4987296;28;20392;-48
2022/07/12 07:43:02;;;;;;;14.40;6.63;;;;;;;21.50;96.09;102453.00;5013325;28;20036;-48
2022/07/12 07:45:27;;;;;;;7.63;6.00;;;;;;;21.56;96.64;102458.50;5012589;28;20029;-47
2022/07/12 07:47:52;;;;;;;10.60;6.63;;;;;;;21.65;97.63;102455.66;5001387;28;20025;-47
2022/07/12 07:50:18;;;;;;;8.35;7.38;;;;;;;21.64;95.93;102453.97;5005207;28;20217;-47
2022/07/12 07:52:44;;;;;;;8.10;6.13;;;;;;;21.51;95.52;102447.38;5006752;28;20610;-48
2022/07/12 07:55:09;;;;;;;10.93;5.57;;;;;;;21.45;95.98;102458.97;4998754;28;20030;-49
2022/07/12 07:57:35;;;;;;;8.60;5.68;;;;;;;21.48;94.72;102455.91;4986488;28;20361;-49
2022/07/12 08:00:00;;;;;;;9.23;4.95;;;;;;;21.62;94.17;102456.88;5001587;28;20424;-48
2022/07/12 08:02:25;;;;;;;10.75;5.40;;;;;;;21.75;93.52;102458.88;5002325;28;20108;-50
2022/07/12 08:04:51;;;;;;;8.35;5.35;;;;;;;21.73;92.62;102460.97;4996014;28;20098;-47
2022/07/12 08:07:17;;;;;;;9.18;6.15;;;;;;;21.65;92.96;102455.66;4995576;28;20037;-50
2022/07/12 08:09:42;;;;;;;10.23;6.95;;;;;;;21.63;95.13;102458.56;4996010;28;20034;-51
2022/07/12 08:12:07;;;;;;;12.15;7.22;;;;;;;21.82;94.36;102458.94;4995969;28;20174;-48
2022/07/12 08:14:33;;;;;;;9.55;7.63;;;;;;;22.12;93.45;102462.31;4995137;28;20420;-48
2022/07/12 08:16:58;;;;;;;10.63;8.10;;;;;;;22.38;90.91;102464.38;4996709;28;20240;-49
2022/07/12 08:19:23;;;;;;;14.43;7.85;;;;;;;22.52;91.84;102466.16;4995577;28;20025;-50
2022/07/12 08:21:48;;;;;;;12.93;9.55;;;;;;;22.60;90.56;102467.00;4996250;28;20075;-51
2022/07/12 08:24:14;;;;;;;11.68;10.45;;;;;;;22.58;90.50;102463.66;4994582;28;20049;-51
2022/07/12 08:26:39;;;;;;;15.85;9.38;;;;;;;22.72;91.83;102466.22;4996082;28;20272;-51
2022/07/12 08:29:05;;;;;;;11.93;9.23;;;;;;;22.58;90.68;102448.16;4994881;28;21344;-50
2022/07/12 08:31:30;;;;;;;15.40;9.77;;;;;;;22.62;91.13;102471.19;5001897;28;20097;-51
2022/07/12 08:33:56;;;;;;;12.10;9.70;;;;;;;22.57;90.82;102468.25;4996144;28;20447;-50
2022/07/12 08:36:21;;;;;;;12.57;9.00;;;;;;;22.54;91.11;102476.84;5004223;28;20034;-50
2022/07/12 08:38:46;;;;;;;10.50;9.25;;;;;;;22.60;89.97;102477.91;5010155;28;20284;-50
2022/07/12 08:41:13;;;;;;;16.52;9.20;;;;;;;22.72;90.74;102473.56;4994573;28;20022;-49
2022/07/12 08:43:39;;;;;;;11.48;8.55;;;;;;;22.86;89.45;102474.44;4976263;28;20314;-48
2022/07/12 08:46:10;;;;;;;11.88;8.85;;;;;;;22.84;87.57;102471.09;5013951;28;20132;-47
2022/07/12 08:48:36;;;;;;;10.82;8.93;;;;;;;22.79;86.86;102481.75;5015157;28;20029;-46
2022/07/12 08:51:18;;;;;;;10.43;8.43;;;;;;;22.91;88.21;102481.00;5013025;28;20080;-48
2022/07/12 08:53:44;;;;;;;10.75;8.05;;;;;;;23.06;87.83;102480.84;4994944;28;20025;-48
2022/07/12 08:56:43;;;;;;;13.25;7.97;;;;;;;23.23;88.83;102491.38;4995144;28;20072;-49
2022/07/12 08:59:20;;;;;;;10.38;8.00;;;;;;;23.37;85.03;102487.66;4959758;28;20060;-47
2022/07/12 09:01:49;;;;;;;12.38;7.72;;;;;;;23.54;83.03;102492.69;4994659;28;20205;-45
2022/07/12 09:04:19;;;;;;;15.48;7.40;;;;;;;23.60;83.76;102486.41;4995733;28;20650;-49
2022/07/12 09:06:46;;;;;;;11.80;8.13;;;;;;;23.65;80.58;102483.91;4978685;28;20029;-45
2022/07/12 09:09:11;;;;;;;13.75;8.70;;;;;;;23.54;80.21;102479.06;4977031;28;20025;-49
2022/07/12 09:11:38;;;;;;;11.68;8.88;;;;;;;23.58;77.38;102481.16;4989623;28;20403;-45
2022/07/12 09:14:04;;;;;;;9.00;7.00;;;;;;;23.70;79.99;102478.66;4996178;28;20249;-50
2022/07/12 09:16:30;;;;;;;12.05;7.53;;;;;;;23.78;79.00;102475.72;5009271;28;20124;-49
2022/07/12 09:19:14;;;;;;;7.85;6.65;;;;;;;23.85;78.78;102473.03;4995657;28;20104;-49
2022/07/12 09:21:49;;;;;;;9.68;7.63;;;;;;;23.90;79.57;102475.16;4992463;28;20036;-50
2022/07/12 09:24:15;;;;;;;16.45;7.40;;;;;;;24.10;80.51;102472.38;5001929;28;20464;-48
2022/07/12 09:26:40;;;;;;;8.23;6.32;;;;;;;24.42;79.41;102470.63;4994713;28;20030;-49
2022/07/12 09:29:07;;;;;;;8.35;6.35;;;;;;;24.50;75.62;102466.84;4993028;28;20104;-47
2022/07/12 09:37:11;;;;;;;11.10;5.85;;;;;;;24.48;76.98;102466.22;4994915;28;20135;-50
2022/07/12 09:39:37;;;;;;;7.82;5.63;;;;;;;24.52;77.23;102471.00;4995016;28;20153;-50
2022/07/12 09:42:03;;;;;;;12.13;7.20;;;;;;;24.64;77.50;102463.03;4994416;28;20481;-47
2022/07/12 09:44:30;;;;;;;10.30;6.03;;;;;;;24.76;75.32;102472.25;5012154;28;20118;-51
2022/07/12 09:46:59;;;;;;;8.35;5.72;;;;;;;24.81;73.37;102478.94;5013403;28;20435;-48
2022/07/12 09:49:26;;;;;;;6.65;5.82;;;;;;;24.91;73.81;102469.22;5012846;28;20028;-49
2022/07/12 09:51:55;;;;;;;6.38;5.78;;;;;;;24.95;74.67;102467.72;5014349;28;20029;-50
2022/07/12 09:54:26;;;;;;;8.00;5.35;;;;;;;25.08;73.73;102471.44;4998599;28;20029;-48
2022/07/12 09:56:53;;;;;;;;;;;;;;;25.31;75.96;102465.47;4995443;28;20104;-49
2022/07/12 09:59:22;;;;;;;10.13;7.13;;;;;;;25.14;69.89;102457.75;4993771;28;20395;-50
2022/07/12 10:01:48;;;;;;;7.93;5.40;;;;;;;25.32;73.12;102456.19;5002843;28;20034;-48
2022/07/12 10:04:18;;;;;;;9.40;5.10;;;;;;;25.66;72.96;102454.03;4994418;28;20040;-47
2022/07/12 10:06:44;;;;;;;6.97;5.50;;;;;;;25.73;71.99;102451.25;4990186;28;20277;-47
2022/07/12 10:09:10;;;;;;;5.82;5.22;;;;;;;25.65;67.83;102449.63;4993959;28;20017;-50
2022/07/12 10:11:37;;;;;;;9.35;5.40;;;;;;;25.78;65.07;102440.47;4971538;28;20105;-48
2022/07/12 10:14:03;;;;;;;9.85;4.40;;;;;;;25.86;61.82;102441.00;4994504;28;20488;-52
2022/07/12 10:16:33;;;;;;;11.75;4.93;;;;;;;25.76;59.34;102437.94;4997467;28;20041;-47
2022/07/12 10:19:21;;;;;;;6.30;5.32;;;;;;;25.55;58.70;102439.19;5006090;28;20396;-51
2022/07/12 10:21:48;;;;;;;9.75;4.95;;;;;;;25.40;60.77;102438.69;4995018;28;20318;-47
2022/07/12 10:24:43;;;;;;;9.55;4.70;;;;;;;25.67;60.34;102440.13;4995055;28;20057;-51
2022/07/12 10:27:14;;;;;;;11.13;4.78;;;;;;;26.06;60.96;102429.06;4974962;28;20576;-52
2022/07/12 10:29:52;;;;;;;9.90;5.57;;;;;;;26.34;58.93;102436.78;4994521;28;20516;-52
2022/07/12 10:32:25;;;;;;;8.07;4.53;;;;;;;26.58;58.62;102437.75;4994590;28;20021;-51
2022/07/12 10:35:01;;;;;;;8.75;3.28;;;;;;;27.02;58.58;102434.88;4994726;28;20048;-52
2022/07/12 10:37:28;;;;;;;7.68;4.82;;;;;;;27.08;54.59;102455.03;4995055;28;20056;-51
2022/07/12 10:40:18;;;;;;;5.22;4.13;;;;;;;27.07;56.25;102451.47;4994156;28;20026;-52
2022/07/12 10:43:07;;;;;;;7.45;4.70;;;;;;;26.98;55.80;102452.84;4995975;28;20026;-51
2022/07/12 10:45:53;;;;;;;8.50;4.82;;;;;;;26.82;56.69;102448.00;4992671;28;20047;-53
2022/07/12 10:48:20;;;;;;;13.95;4.10;;;;;;;26.68;55.68;102450.94;4990583;28;20415;-52
2022/07/12 10:50:48;;;;;;;10.20;3.90;;;;;;;26.81;56.71;102447.16;4998324;28;20073;-49
2022/07/12 10:53:20;;;;;;;8.25;3.88;;;;;;;27.06;55.76;102455.28;5013426;28;20132;-51
2022/07/12 10:56:04;;;;;;;5.13;3.58;;;;;;;27.21;54.26;102454.00;5014846;28;20040;-53
2022/07/12 10:58:34;;;;;;;6.25;3.17;;;;;;;27.30;55.77;102453.47;5005300;28;20350;-51
2022/07/12 11:01:05;;;;;;;4.63;3.65;;;;;;;27.18;53.23;102452.56;4998607;28;20034;-50
2022/07/12 11:03:32;;;;;;;9.50;3.65;;;;;;;27.38;53.10;102443.22;4997935;28;20026;-52
2022/07/12 11:06:03;;;;;;;4.45;3.08;;;;;;;27.66;51.63;102451.63;4998489;28;20499;-51
2022/07/12 11:08:29;;;;;;;7.80;3.70;;;;;;;27.54;51.50;102446.09;4997569;28;20374;-51
2022/07/12 11:10:58;;;;;;;9.05;3.83;;;;;;;27.51;52.11;102440.25;4993477;28;20023;-49
2022/07/12 11:13:24;;;;;;;7.80;3.80;;;;;;;27.72;51.95;102441.63;4996450;28;20473;-48
2022/07/12 11:16:00;;;;;;;4.50;3.40;;;;;;;28.00;52.89;102445.56;4996624;28;20303;-47
2022/07/12 11:18:33;;;;;;;5.20;3.45;;;;;;;28.03;51.74;102445.09;4995908;28;20172;-51
2022/07/12 11:20:59;;;;;;;13.10;3.08;;;;;;;28.15;51.02;102445.09;4979911;28;20037;-51
2022/07/12 11:23:26;;;;;;;6.47;3.70;;;;;;;27.78;50.05;102443.38;4997111;28;20139;-51
2022/07/12 11:25:55;;;;;;;9.57;3.40;;;;;;;27.67;50.91;102436.81;4997842;28;20014;-51